Time;durP1;ratioP1;P1;durP2;ratioP2;P2;SDS_P1;SDS_P2;PMS_P1;PMS_P2;Temp;Humidity;BMP_temperature;BMP_pressure;BME280_temperature;BME280_humidity;BME280_pressure;Samples;Min_cycle;Max_cycle;Signal;HPM_P1;HPM_P2
2022/01/13 00:02:26;;;;;;;30.63;17.58;;;;;;;;;;5025190;28;20219;-76
2022/01/13 00:04:53;;;;;;;27.75;16.13;;;;;;;;;;5026914;28;20646;-77
2022/01/13 00:07:20;;;;;;;30.00;18.10;;;;;;;;;;5030190;28;20207;-76
2022/01/13 00:09:47;;;;;;;29.73;17.10;;;;;;;;;;5029083;28;20204;-76
2022/01/13 00:12:18;;;;;;;25.80;16.65;;;;;;;;;;5032044;28;20206;-77
2022/01/13 00:15:06;;;;;;;25.83;15.82;;;;;;;;;;5030226;28;20275;-76
2022/01/13 00:17:46;;;;;;;34.30;18.40;;;;;;;;;;5029319;28;20761;-78
2022/01/13 00:20:36;;;;;;;24.75;15.55;;;;;;;;;;5030326;28;20191;-77
2022/01/13 00:25:53;;;;;;;27.23;17.92;;;;;;;;;;5030764;28;20455;-77
2022/01/13 00:28:22;;;;;;;33.33;20.50;;;;;;;;;;5031495;28;20195;-77
2022/01/13 00:30:53;;;;;;;27.20;16.50;;;;;;;;;;5031094;28;20195;-77
2022/01/13 00:33:24;;;;;;;31.85;18.95;;;;;;;;;;5029432;28;20232;-77
2022/01/13 00:35:51;;;;;;;22.85;16.20;;;;;;;;;;5031949;28;20551;-77
2022/01/13 00:38:18;;;;;;;27.50;18.65;;;;;;;;;;5029764;28;20204;-76
2022/01/13 00:40:45;;;;;;;26.45;15.48;;;;;;;;;;5030809;28;20196;-77
2022/01/13 00:43:12;;;;;;;29.15;17.98;;;;;;;;;;5029099;28;20196;-77
2022/01/13 00:45:41;;;;;;;30.30;17.13;;;;;;;;;;5029432;28;20196;-80
2022/01/13 00:48:08;;;;;;;25.92;15.35;;;;;;;;;;5025841;28;20194;-78
2022/01/13 00:50:35;;;;;;;25.73;15.90;;;;;;;;;;5029546;28;20194;-77
2022/01/13 00:53:02;;;;;;;25.55;15.95;;;;;;;;;;5029057;28;20540;-78
2022/01/13 00:55:44;;;;;;;24.98;15.20;;;;;;;;;;5029304;28;20207;-79
2022/01/13 00:58:11;;;;;;;29.88;17.80;;;;;;;;;;5026680;28;20227;-79
2022/01/13 01:00:38;;;;;;;27.80;17.33;;;;;;;;;;5030160;28;20200;-79
2022/01/13 01:03:07;;;;;;;25.73;17.05;;;;;;;;;;5030768;28;20230;-80
2022/01/13 01:05:34;;;;;;;29.60;17.45;;;;;;;;;;5028723;28;20239;-77
2022/01/13 01:08:02;;;;;;;24.77;16.77;;;;;;;;;;5030077;28;20191;-78
2022/01/13 01:10:29;;;;;;;35.25;20.38;;;;;;;;;;5028876;28;20559;-77
2022/01/13 01:12:56;;;;;;;32.35;20.27;;;;;;;;;;5026358;28;20199;-77
2022/01/13 01:15:24;;;;;;;28.58;17.55;;;;;;;;;;5027382;28;20195;-76
2022/01/13 01:17:58;;;;;;;28.20;17.00;;;;;;;;;;5026705;28;20267;-76
2022/01/13 01:20:30;;;;;;;27.42;16.70;;;;;;;;;;5022468;28;20295;-77
2022/01/13 01:23:05;;;;;;;33.10;19.17;;;;;;;;;;5021182;28;20227;-78
2022/01/13 01:25:41;;;;;;;32.67;19.80;;;;;;;;;;5029206;28;20201;-77
2022/01/13 01:28:15;;;;;;;28.98;18.10;;;;;;;;;;5028632;28;20286;-77
2022/01/13 01:30:44;;;;;;;26.60;16.25;;;;;;;;;;5027771;28;20217;-76
2022/01/13 01:33:16;;;;;;;25.80;16.15;;;;;;;;;;5024337;28;20204;-76
2022/01/13 01:35:44;;;;;;;29.02;17.20;;;;;;;;;;5029052;28;20654;-77
2022/01/13 01:38:11;;;;;;;24.98;16.30;;;;;;;;;;5030735;28;20218;-77
2022/01/13 01:40:38;;;;;;;29.73;17.30;;;;;;;;;;5028150;28;20201;-77
2022/01/13 01:43:05;;;;;;;31.30;18.67;;;;;;;;;;5031053;28;20219;-77
2022/01/13 01:45:41;;;;;;;25.00;16.42;;;;;;;;;;5029982;28;20229;-78
2022/01/13 01:48:09;;;;;;;23.48;15.63;;;;;;;;;;5030704;28;20202;-79
2022/01/13 01:50:38;;;;;;;27.67;18.25;;;;;;;;;;5027471;28;20195;-79
2022/01/13 01:53:07;;;;;;;28.13;17.60;;;;;;;;;;5023583;28;20204;-79
2022/01/13 01:55:35;;;;;;;28.80;19.77;;;;;;;;;;5030451;28;20187;-79
2022/01/13 01:58:02;;;;;;;26.88;17.90;;;;;;;;;;5029038;28;20219;-75
2022/01/13 02:00:29;;;;;;;26.05;16.48;;;;;;;;;;5022533;28;20538;-78
2022/01/13 02:02:56;;;;;;;23.80;15.60;;;;;;;;;;5027618;28;20219;-78
2022/01/13 02:05:24;;;;;;;33.42;17.52;;;;;;;;;;5025018;28;20192;-78
2022/01/13 02:07:51;;;;;;;32.17;17.63;;;;;;;;;;5031391;28;20203;-77
2022/01/13 02:10:20;;;;;;;25.48;16.27;;;;;;;;;;5025166;28;20202;-78
2022/01/13 02:12:51;;;;;;;31.33;18.30;;;;;;;;;;5030163;28;20204;-78
2022/01/13 02:15:33;;;;;;;23.33;16.45;;;;;;;;;;5030125;28;20188;-78
2022/01/13 02:18:05;;;;;;;27.05;17.65;;;;;;;;;;5029683;28;20698;-78
2022/01/13 02:20:49;;;;;;;32.15;17.13;;;;;;;;;;5028398;28;20218;-78
2022/01/13 02:23:29;;;;;;;31.17;16.70;;;;;;;;;;5025764;28;20215;-78
2022/01/13 02:25:56;;;;;;;26.33;16.20;;;;;;;;;;5023986;28;20627;-79
2022/01/13 02:28:23;;;;;;;25.23;16.88;;;;;;;;;;5028349;28;20195;-79
2022/01/13 02:30:50;;;;;;;29.25;17.63;;;;;;;;;;5026544;28;20662;-78
2022/01/13 02:33:17;;;;;;;26.75;16.85;;;;;;;;;;5021577;28;20196;-79
2022/01/13 02:35:44;;;;;;;31.55;18.70;;;;;;;;;;5028253;28;20195;-78
2022/01/13 02:38:13;;;;;;;25.88;15.55;;;;;;;;;;5030770;28;20199;-78
2022/01/13 02:40:41;;;;;;;30.00;16.55;;;;;;;;;;5025829;28;20192;-77
2022/01/13 02:43:08;;;;;;;29.90;17.73;;;;;;;;;;5030825;28;20239;-78
2022/01/13 02:45:38;;;;;;;30.58;17.30;;;;;;;;;;5029281;28;20658;-78
2022/01/13 02:48:28;;;;;;;26.45;16.60;;;;;;;;;;5017150;28;20203;-77
2022/01/13 02:50:55;;;;;;;30.83;17.00;;;;;;;;;;5028449;28;20227;-78
2022/01/13 02:53:24;;;;;;;29.58;16.50;;;;;;;;;;5025146;28;20549;-78
2022/01/13 02:55:54;;;;;;;28.80;18.27;;;;;;;;;;5017001;28;20203;-78
2022/01/13 02:58:21;;;;;;;33.65;19.33;;;;;;;;;;5021449;28;20204;-78
2022/01/13 03:00:48;;;;;;;31.50;18.63;;;;;;;;;;5020566;28;20203;-76
2022/01/13 03:03:15;;;;;;;31.67;17.50;;;;;;;;;;5022561;28;20215;-76
2022/01/13 03:05:42;;;;;;;34.03;18.20;;;;;;;;;;5022211;28;20428;-77
2022/01/13 03:08:10;;;;;;;27.73;17.08;;;;;;;;;;5022547;28;20196;-77
2022/01/13 03:10:39;;;;;;;34.20;18.92;;;;;;;;;;5025631;28;20207;-76
2022/01/13 03:13:07;;;;;;;36.10;18.75;;;;;;;;;;5026787;28;20204;-77
2022/01/13 03:15:34;;;;;;;32.20;18.17;;;;;;;;;;5022827;28;20626;-77
2022/01/13 03:18:01;;;;;;;28.75;17.70;;;;;;;;;;5027689;28;20195;-77
2022/01/13 03:20:28;;;;;;;31.35;15.90;;;;;;;;;;5028469;28;20574;-77
2022/01/13 03:22:55;;;;;;;30.13;17.15;;;;;;;;;;5030757;28;20222;-77
2022/01/13 03:25:24;;;;;;;27.52;17.75;;;;;;;;;;5026526;28;20650;-77
2022/01/13 03:27:57;;;;;;;28.75;17.02;;;;;;;;;;5025232;28;20204;-77
2022/01/13 03:30:25;;;;;;;33.20;17.55;;;;;;;;;;5029546;28;20204;-77
2022/01/13 03:32:52;;;;;;;29.10;18.90;;;;;;;;;;5032613;28;20231;-77
2022/01/13 03:35:19;;;;;;;28.85;17.55;;;;;;;;;;5032551;28;20195;-77
2022/01/13 03:37:46;;;;;;;33.63;18.88;;;;;;;;;;5033209;28;20191;-77
2022/01/13 03:40:13;;;;;;;32.70;18.40;;;;;;;;;;5027634;28;20188;-77
2022/01/13 03:42:41;;;;;;;31.30;19.48;;;;;;;;;;5027231;28;20238;-77
2022/01/13 03:45:10;;;;;;;34.53;19.42;;;;;;;;;;5033221;28;20214;-77
2022/01/13 03:47:37;;;;;;;36.38;19.73;;;;;;;;;;5029338;28;20238;-77
2022/01/13 03:50:07;;;;;;;32.00;20.02;;;;;;;;;;5023977;28;20200;-77
2022/01/13 03:52:53;;;;;;;32.03;17.45;;;;;;;;;;5031272;28;20211;-77
2022/01/13 03:55:50;;;;;;;27.77;16.17;;;;;;;;;;5027002;28;20195;-77
2022/01/13 03:58:36;;;;;;;32.55;17.80;;;;;;;;;;5026298;28;20192;-77
2022/01/13 04:01:23;;;;;;;37.83;17.88;;;;;;;;;;5027503;28;20206;-76
2022/01/13 04:03:50;;;;;;;32.53;19.17;;;;;;;;;;5028336;28;20230;-76
2022/01/13 04:06:38;;;;;;;37.00;18.88;;;;;;;;;;5031776;28;20196;-76
2022/01/13 04:09:09;;;;;;;31.95;19.48;;;;;;;;;;5025600;28;20195;-75
2022/01/13 04:11:36;;;;;;;31.33;18.33;;;;;;;;;;5032025;28;20196;-76
2022/01/13 04:14:05;;;;;;;37.50;19.75;;;;;;;;;;5029688;28;20208;-77
2022/01/13 04:16:36;;;;;;;33.63;18.92;;;;;;;;;;5029980;28;20220;-76
2022/01/13 04:19:05;;;;;;;28.63;16.83;;;;;;;;;;5026205;28;20253;-77
2022/01/13 04:21:32;;;;;;;31.63;17.40;;;;;;;;;;5032742;28;20266;-78
2022/01/13 04:24:00;;;;;;;32.45;18.90;;;;;;;;;;5029977;28;20223;-77
2022/01/13 04:26:30;;;;;;;35.08;19.65;;;;;;;;;;5029811;28;20201;-77
2022/01/13 04:29:04;;;;;;;40.03;20.27;;;;;;;;;;5029228;28;20207;-77
2022/01/13 04:31:31;;;;;;;33.80;18.35;;;;;;;;;;5031294;28;20195;-77
2022/01/13 04:34:00;;;;;;;34.30;20.40;;;;;;;;;;5025000;28;20206;-77
2022/01/13 04:36:27;;;;;;;34.25;17.85;;;;;;;;;;5030737;28;20192;-77
2022/01/13 04:38:54;;;;;;;27.85;18.83;;;;;;;;;;5027367;28;20195;-77
2022/01/13 04:41:29;;;;;;;34.45;18.65;;;;;;;;;;5025731;28;20202;-77
2022/01/13 04:43:58;;;;;;;34.50;18.50;;;;;;;;;;5022331;28;20581;-80
2022/01/13 04:46:25;;;;;;;32.67;20.35;;;;;;;;;;5027871;28;20196;-79
2022/01/13 04:48:52;;;;;;;33.17;18.27;;;;;;;;;;5023064;28;20669;-79
2022/01/13 04:51:21;;;;;;;35.47;20.27;;;;;;;;;;5024511;28;20202;-78
2022/01/13 04:53:48;;;;;;;33.58;18.65;;;;;;;;;;5024439;28;20203;-79
2022/01/13 04:56:27;;;;;;;35.47;17.05;;;;;;;;;;5028409;28;20211;-79
2022/01/13 04:58:54;;;;;;;33.63;17.20;;;;;;;;;;5022225;28;20203;-78
2022/01/13 05:01:21;;;;;;;35.50;20.08;;;;;;;;;;5029015;28;20196;-78
2022/01/13 05:03:48;;;;;;;33.83;19.15;;;;;;;;;;5022911;28;20594;-78
2022/01/13 05:06:17;;;;;;;32.38;18.42;;;;;;;;;;5029824;28;20563;-77
2022/01/13 05:08:46;;;;;;;39.05;18.63;;;;;;;;;;5027788;28;20189;-79
2022/01/13 05:11:13;;;;;;;35.08;18.67;;;;;;;;;;5028300;28;20554;-79
2022/01/13 05:13:40;;;;;;;45.20;21.05;;;;;;;;;;5026786;28;20203;-79
2022/01/13 05:16:14;;;;;;;33.00;18.00;;;;;;;;;;5024487;28;20223;-80
2022/01/13 05:18:48;;;;;;;35.20;19.20;;;;;;;;;;5028236;28;20198;-79
2022/01/13 05:21:22;;;;;;;33.55;18.05;;;;;;;;;;5025179;28;20646;-79
2022/01/13 05:23:52;;;;;;;36.88;19.85;;;;;;;;;;5024573;28;20634;-79
2022/01/13 05:26:19;;;;;;;37.90;20.90;;;;;;;;;;5023936;28;20204;-79
2022/01/13 05:28:46;;;;;;;33.30;21.20;;;;;;;;;;5025139;28;20598;-79
2022/01/13 05:31:13;;;;;;;34.28;20.40;;;;;;;;;;5021834;28;20195;-79
2022/01/13 05:33:40;;;;;;;35.72;18.77;;;;;;;;;;5026637;28;20554;-79
2022/01/13 05:36:08;;;;;;;40.78;20.23;;;;;;;;;;5019864;28;20562;-80
2022/01/13 05:38:35;;;;;;;34.70;19.70;;;;;;;;;;5027847;28;20195;-80
2022/01/13 05:41:03;;;;;;;35.45;17.92;;;;;;;;;;5021397;28;20196;-79
2022/01/13 05:43:30;;;;;;;36.55;21.17;;;;;;;;;;5023245;28;20216;-79
2022/01/13 05:45:57;;;;;;;36.20;19.55;;;;;;;;;;5028211;28;20195;-79
2022/01/13 05:48:24;;;;;;;34.85;21.40;;;;;;;;;;5027937;28;20666;-79
2022/01/13 05:50:51;;;;;;;36.05;20.75;;;;;;;;;;5030332;28;20204;-79
2022/01/13 05:53:19;;;;;;;43.00;22.63;;;;;;;;;;5028045;28;20574;-78
2022/01/13 05:55:46;;;;;;;40.35;21.60;;;;;;;;;;5025262;28;20192;-79
2022/01/13 05:58:14;;;;;;;38.65;19.23;;;;;;;;;;5026878;28;20558;-79
2022/01/13 06:00:41;;;;;;;38.78;21.92;;;;;;;;;;5027157;28;20199;-79
2022/01/13 06:03:09;;;;;;;39.17;20.55;;;;;;;;;;5028811;28;20246;-79
2022/01/13 06:05:36;;;;;;;42.03;20.10;;;;;;;;;;5029203;28;20195;-79
2022/01/13 06:08:04;;;;;;;41.85;23.13;;;;;;;;;;5030663;28;20192;-79
2022/01/13 06:10:31;;;;;;;42.15;22.20;;;;;;;;;;5017671;28;20192;-79
2022/01/13 06:12:58;;;;;;;42.85;21.55;;;;;;;;;;5028122;28;20199;-79
2022/01/13 06:15:27;;;;;;;45.22;21.90;;;;;;;;;;5025406;28;20203;-79
2022/01/13 06:17:55;;;;;;;49.50;24.23;;;;;;;;;;5024888;28;20223;-79
2022/01/13 06:20:22;;;;;;;47.05;24.20;;;;;;;;;;5030595;28;20195;-78
2022/01/13 06:22:50;;;;;;;46.33;24.48;;;;;;;;;;5029524;28;20222;-78
2022/01/13 06:25:18;;;;;;;48.05;25.17;;;;;;;;;;5019657;28;20197;-79
2022/01/13 06:27:46;;;;;;;44.13;24.73;;;;;;;;;;5029951;28;20543;-79
2022/01/13 06:30:14;;;;;;;38.55;23.50;;;;;;;;;;5015979;28;20559;-79
2022/01/13 06:32:42;;;;;;;42.25;23.15;;;;;;;;;;5019211;28;20677;-79
2022/01/13 06:35:10;;;;;;;41.15;20.65;;;;;;;;;;5028544;28;20493;-79
2022/01/13 06:37:37;;;;;;;43.45;20.80;;;;;;;;;;5029809;28;20203;-79
2022/01/13 06:40:05;;;;;;;43.35;23.35;;;;;;;;;;5026162;28;20192;-79
2022/01/13 06:42:32;;;;;;;47.55;22.42;;;;;;;;;;5021601;28;20239;-79
2022/01/13 06:44:59;;;;;;;54.88;24.80;;;;;;;;;;5028100;28;20207;-79
2022/01/13 06:47:26;;;;;;;44.38;24.33;;;;;;;;;;5023186;28;20197;-79
2022/01/13 06:49:55;;;;;;;43.00;22.10;;;;;;;;;;5026808;28;20191;-79
2022/01/13 06:52:22;;;;;;;40.05;22.02;;;;;;;;;;5022181;28;20191;-79
2022/01/13 06:54:51;;;;;;;50.55;26.60;;;;;;;;;;5029607;28;20195;-79
2022/01/13 06:57:19;;;;;;;42.67;23.55;;;;;;;;;;5027925;28;20199;-77
2022/01/13 06:59:46;;;;;;;46.75;25.15;;;;;;;;;;5028978;28;20207;-78
2022/01/13 07:02:14;;;;;;;52.47;25.52;;;;;;;;;;5018209;28;20594;-78
2022/01/13 07:04:41;;;;;;;49.78;23.60;;;;;;;;;;5029762;28;20215;-78
2022/01/13 07:07:09;;;;;;;48.22;26.15;;;;;;;;;;5031864;28;20195;-76
2022/01/13 07:09:36;;;;;;;52.05;26.45;;;;;;;;;;5023678;28;20199;-77
2022/01/13 07:12:04;;;;;;;46.85;25.63;;;;;;;;;;5031406;28;20198;-77
2022/01/13 07:14:31;;;;;;;41.58;22.90;;;;;;;;;;5025134;28;20200;-77
2022/01/13 07:16:58;;;;;;;43.97;23.65;;;;;;;;;;5031373;28;20350;-77
2022/01/13 07:19:25;;;;;;;52.05;27.20;;;;;;;;;;5023955;28;20662;-77
2022/01/13 07:21:52;;;;;;;50.80;25.80;;;;;;;;;;5025333;28;20660;-78
2022/01/13 07:24:20;;;;;;;56.65;26.40;;;;;;;;;;5023743;28;20730;-78
2022/01/13 07:26:47;;;;;;;40.88;22.65;;;;;;;;;;5030668;28;20210;-78
2022/01/13 07:29:15;;;;;;;47.42;28.63;;;;;;;;;;5025616;28;20198;-78
2022/01/13 07:31:42;;;;;;;52.80;26.10;;;;;;;;;;5028079;28;20203;-77
2022/01/13 07:34:09;;;;;;;58.65;28.75;;;;;;;;;;5028564;28;20192;-77
2022/01/13 07:36:38;;;;;;;52.08;28.67;;;;;;;;;;5027187;28;20195;-77
2022/01/13 07:39:07;;;;;;;52.63;24.52;;;;;;;;;;5023437;28;20733;-79
2022/01/13 07:41:36;;;;;;;44.80;25.00;;;;;;;;;;5026002;28;20204;-78
2022/01/13 07:44:04;;;;;;;53.03;26.30;;;;;;;;;;5029710;28;20574;-79
2022/01/13 07:46:31;;;;;;;54.33;26.80;;;;;;;;;;5028657;28;20196;-79
2022/01/13 07:48:58;;;;;;;46.40;26.45;;;;;;;;;;5020117;28;20192;-79
2022/01/13 07:51:25;;;;;;;42.15;23.27;;;;;;;;;;5023218;28;20187;-77
2022/01/13 07:53:52;;;;;;;42.67;23.95;;;;;;;;;;5027129;28;20210;-78
2022/01/13 07:56:19;;;;;;;45.75;23.88;;;;;;;;;;4960078;28;20220;-77
2022/01/13 07:58:47;;;;;;;45.75;26.27;;;;;;;;;;5013210;28;20188;-79
2022/01/13 08:01:15;;;;;;;45.92;24.88;;;;;;;;;;5012300;28;20209;-78
2022/01/13 08:03:42;;;;;;;41.30;24.60;;;;;;;;;;5003930;28;20227;-78
2022/01/13 08:06:09;;;;;;;45.55;24.10;;;;;;;;;;5013970;28;20196;-78
2022/01/13 08:08:36;;;;;;;44.10;23.33;;;;;;;;;;5010266;28;20193;-78
2022/01/13 08:11:04;;;;;;;49.75;26.13;;;;;;;;;;5008248;28;20682;-78
2022/01/13 08:13:31;;;;;;;45.40;23.05;;;;;;;;;;5009148;28;20192;-77
2022/01/13 08:16:01;;;;;;;43.33;25.60;;;;;;;;;;5004590;28;20228;-78
2022/01/13 08:21:13;;;;;;;41.95;26.48;;;;;;;;;;5006551;28;20686;-78
2022/01/13 08:23:40;;;;;;;48.65;23.65;;;;;;;;;;5010150;28;20560;-77
2022/01/13 08:26:08;;;;;;;37.72;23.48;;;;;;;;;;5012836;28;20196;-74
2022/01/13 08:28:35;;;;;;;51.08;24.48;;;;;;;;;;5006917;28;20504;-78
2022/01/13 08:31:04;;;;;;;49.55;25.80;;;;;;;;;;5008105;28;20205;-75
2022/01/13 08:33:32;;;;;;;47.92;24.35;;;;;;;;;;5010154;28;20201;-79
2022/01/13 08:35:59;;;;;;;42.65;22.70;;;;;;;;;;5013362;28;20196;-78
2022/01/13 08:38:26;;;;;;;38.72;21.92;;;;;;;;;;5007774;28;20671;-75
2022/01/13 08:40:54;;;;;;;42.72;22.88;;;;;;;;;;5007068;28;20196;-77
2022/01/13 08:43:22;;;;;;;40.20;22.90;;;;;;;;;;5007760;28;20275;-77
2022/01/13 08:45:49;;;;;;;41.25;22.25;;;;;;;;;;5006853;28;20207;-76
2022/01/13 08:48:18;;;;;;;46.03;24.77;;;;;;;;;;5002853;28;20203;-77
2022/01/13 08:50:45;;;;;;;45.63;24.17;;;;;;;;;;5003469;28;20196;-77
2022/01/13 08:53:12;;;;;;;42.05;23.70;;;;;;;;;;5011654;28;20533;-77
2022/01/13 08:55:39;;;;;;;44.45;26.52;;;;;;;;;;5004728;28;20193;-76
2022/01/13 08:58:07;;;;;;;40.08;24.15;;;;;;;;;;5009265;28;20196;-77
2022/01/13 09:00:36;;;;;;;39.33;22.13;;;;;;;;;;5009601;28;20279;-77
2022/01/13 09:03:06;;;;;;;36.67;21.30;;;;;;;;;;4997666;28;20280;-77
2022/01/13 09:05:36;;;;;;;33.88;21.73;;;;;;;;;;5003568;28;20311;-77
2022/01/13 09:08:04;;;;;;;42.08;25.20;;;;;;;;;;5011459;28;20215;-77
2022/01/13 09:10:31;;;;;;;41.08;22.23;;;;;;;;;;5003294;28;20246;-77
2022/01/13 09:12:58;;;;;;;37.65;24.77;;;;;;;;;;5009802;28;20204;-77
2022/01/13 09:15:35;;;;;;;38.70;23.27;;;;;;;;;;5006951;28;20230;-77
2022/01/13 09:18:09;;;;;;;41.50;24.30;;;;;;;;;;5002760;28;21719;-77
2022/01/13 09:20:38;;;;;;;42.15;22.52;;;;;;;;;;5011297;28;20621;-77
2022/01/13 09:23:05;;;;;;;43.03;24.63;;;;;;;;;;5011361;28;20203;-77
2022/01/13 09:25:32;;;;;;;44.95;22.95;;;;;;;;;;4999597;28;20633;-77
2022/01/13 09:27:59;;;;;;;43.30;24.45;;;;;;;;;;5008138;28;20219;-77
2022/01/13 09:30:27;;;;;;;52.17;28.33;;;;;;;;;;5006356;28;20196;-77
2022/01/13 09:32:54;;;;;;;49.45;25.85;;;;;;;;;;5001432;28;20200;-76
2022/01/13 09:35:21;;;;;;;43.38;25.58;;;;;;;;;;5002415;28;20659;-77
2022/01/13 09:37:50;;;;;;;50.25;25.27;;;;;;;;;;5007747;28;20586;-76
2022/01/13 09:40:17;;;;;;;49.70;28.55;;;;;;;;;;5006744;28;20192;-77
2022/01/13 09:42:45;;;;;;;66.50;29.10;;;;;;;;;;5011351;28;20563;-77
2022/01/13 09:45:13;;;;;;;52.90;30.20;;;;;;;;;;5009924;28;20224;-77
2022/01/13 09:47:41;;;;;;;48.60;25.20;;;;;;;;;;5003749;28;20200;-77
2022/01/13 09:50:11;;;;;;;50.70;24.95;;;;;;;;;;5007958;28;20200;-80
2022/01/13 09:52:38;;;;;;;50.90;29.13;;;;;;;;;;5007237;28;20283;-75
2022/01/13 09:55:07;;;;;;;57.88;28.83;;;;;;;;;;5007977;28;20208;-79
2022/01/13 09:57:34;;;;;;;51.00;27.75;;;;;;;;;;5007606;28;20196;-75
2022/01/13 10:00:01;;;;;;;52.33;24.88;;;;;;;;;;5010965;28;20200;-74
2022/01/13 10:02:29;;;;;;;55.45;28.95;;;;;;;;;;5003650;28;20194;-74
2022/01/13 10:04:57;;;;;;;49.67;26.60;;;;;;;;;;5010377;28;20274;-74
2022/01/13 10:07:31;;;;;;;44.13;24.77;;;;;;;;;;5008392;28;20196;-75
2022/01/13 10:09:59;;;;;;;55.03;27.65;;;;;;;;;;4991296;28;20203;-74
2022/01/13 10:12:31;;;;;;;52.58;28.27;;;;;;;;;;5008668;28;20211;-74
2022/01/13 10:17:48;;;;;;;50.33;28.15;;;;;;;;;;5006643;28;20223;-74
2022/01/13 10:20:17;;;;;;;61.55;30.17;;;;;;;;;;5010898;28;20212;-74
2022/01/13 10:22:44;;;;;;;61.75;28.23;;;;;;;;;;5010909;28;20807;-75
2022/01/13 10:25:25;;;;;;;55.22;28.35;;;;;;;;;;5006962;28;20694;-75
2022/01/13 10:27:54;;;;;;;52.65;31.10;;;;;;;;;;5009409;28;20199;-74
2022/01/13 10:30:25;;;;;;;58.40;27.90;;;;;;;;;;5010185;28;20196;-74
2022/01/13 10:32:53;;;;;;;49.88;27.10;;;;;;;;;;5011288;28;20215;-74
2022/01/13 10:35:21;;;;;;;63.53;28.65;;;;;;;;;;5004167;28;20234;-74
2022/01/13 10:37:49;;;;;;;62.78;28.05;;;;;;;;;;5004425;28;20577;-74
2022/01/13 10:40:18;;;;;;;49.75;28.42;;;;;;;;;;5005222;28;20562;-74
2022/01/13 10:45:34;;;;;;;47.58;25.27;;;;;;;;;;4992960;28;20699;-75
2022/01/13 10:48:04;;;;;;;49.78;26.55;;;;;;;;;;5008564;28;20203;-74
2022/01/13 10:50:32;;;;;;;53.22;25.90;;;;;;;;;;5004210;28;20284;-75
2022/01/13 10:53:04;;;;;;;45.38;25.80;;;;;;;;;;5005120;28;20208;-75
2022/01/13 10:55:32;;;;;;;53.92;28.00;;;;;;;;;;4998451;28;20586;-76
2022/01/13 10:58:00;;;;;;;56.42;28.85;;;;;;;;;;5008816;28;20570;-75
2022/01/13 11:00:30;;;;;;;50.22;26.20;;;;;;;;;;5009659;28;20561;-74
2022/01/13 11:03:03;;;;;;;53.63;27.20;;;;;;;;;;5008628;28;20238;-76
2022/01/13 11:05:31;;;;;;;45.80;26.10;;;;;;;;;;4990875;28;20244;-74
2022/01/13 11:07:59;;;;;;;45.42;25.50;;;;;;;;;;5006304;28;20211;-74
2022/01/13 11:10:26;;;;;;;53.47;26.23;;;;;;;;;;4994202;28;20226;-74
2022/01/13 11:12:58;;;;;;;54.47;27.35;;;;;;;;;;5008218;28;20212;-75
2022/01/13 11:15:25;;;;;;;54.25;28.35;;;;;;;;;;5006364;28;20211;-78
2022/01/13 11:17:54;;;;;;;52.55;28.45;;;;;;;;;;5012387;28;20220;-77
2022/01/13 11:20:23;;;;;;;57.80;29.00;;;;;;;;;;5001507;28;20197;-78
2022/01/13 11:22:52;;;;;;;47.25;25.52;;;;;;;;;;5006777;28;20207;-74
2022/01/13 11:25:23;;;;;;;56.13;29.27;;;;;;;;;;5004411;28;20224;-75
2022/01/13 11:27:50;;;;;;;63.35;28.83;;;;;;;;;;5005584;28;20214;-75
2022/01/13 11:30:18;;;;;;;54.03;29.08;;;;;;;;;;5006905;28;20196;-74
2022/01/13 11:32:46;;;;;;;50.50;25.70;;;;;;;;;;5003838;28;20215;-76
2022/01/13 11:35:14;;;;;;;51.35;25.55;;;;;;;;;;5001990;28;20196;-75
2022/01/13 11:37:42;;;;;;;55.33;25.58;;;;;;;;;;5006228;28;20203;-75
2022/01/13 11:40:30;;;;;;;49.53;24.45;;;;;;;;;;5000626;28;20211;-75
2022/01/13 11:42:58;;;;;;;52.72;26.40;;;;;;;;;;5001572;28;20297;-75
2022/01/13 11:45:25;;;;;;;45.22;24.98;;;;;;;;;;5002300;28;20616;-75
2022/01/13 11:48:11;;;;;;;53.22;24.85;;;;;;;;;;5002734;28;20217;-74
2022/01/13 11:50:44;;;;;;;42.83;23.67;;;;;;;;;;5009122;28;20211;-74
2022/01/13 11:53:19;;;;;;;44.53;24.92;;;;;;;;;;5009525;28;20729;-75
2022/01/13 11:55:51;;;;;;;42.58;23.98;;;;;;;;;;5006537;28;20200;-75
2022/01/13 11:58:19;;;;;;;49.30;24.67;;;;;;;;;;5004488;28;20555;-74
2022/01/13 12:00:50;;;;;;;44.13;24.95;;;;;;;;;;5000755;28;20691;-74
2022/01/13 12:03:23;;;;;;;39.85;23.50;;;;;;;;;;5006551;28;20631;-75
2022/01/13 12:05:51;;;;;;;53.92;26.17;;;;;;;;;;5003234;28;20224;-74
2022/01/13 12:08:33;;;;;;;41.50;24.95;;;;;;;;;;5001188;28;20203;-75
2022/01/13 12:11:01;;;;;;;42.65;24.92;;;;;;;;;;5001686;28;20648;-75
2022/01/13 12:13:32;;;;;;;47.10;25.73;;;;;;;;;;5009083;28;20204;-75
2022/01/13 12:15:59;;;;;;;44.78;24.05;;;;;;;;;;5007325;28;20219;-74
2022/01/13 12:18:41;;;;;;;44.03;24.55;;;;;;;;;;5001546;28;20196;-74
2022/01/13 12:21:25;;;;;;;44.30;24.33;;;;;;;;;;4996336;28;20682;-74
2022/01/13 12:23:52;;;;;;;47.28;23.55;;;;;;;;;;5006772;28;20200;-75
2022/01/13 12:26:37;;;;;;;45.78;24.08;;;;;;;;;;5008049;28;20224;-75
2022/01/13 12:29:13;;;;;;;45.47;24.88;;;;;;;;;;5004606;28;20207;-74
2022/01/13 12:31:49;;;;;;;39.88;21.42;;;;;;;;;;5009295;28;20210;-74
2022/01/13 12:34:35;;;;;;;42.58;22.52;;;;;;;;;;5001917;28;20495;-76
2022/01/13 12:37:19;;;;;;;38.75;22.13;;;;;;;;;;5007975;28;20623;-74
2022/01/13 12:39:48;;;;;;;46.85;25.10;;;;;;;;;;5007612;28;20196;-74
2022/01/13 12:42:16;;;;;;;36.75;21.35;;;;;;;;;;5009928;28;20200;-75
2022/01/13 12:47:29;;;;;;;42.65;23.10;;;;;;;;;;5008257;28;20724;-75
2022/01/13 12:49:56;;;;;;;42.53;25.25;;;;;;;;;;5008155;28;20231;-74
2022/01/13 12:52:24;;;;;;;35.60;21.30;;;;;;;;;;5009180;28;20192;-75
2022/01/13 12:54:51;;;;;;;37.78;22.88;;;;;;;;;;5000650;28;20212;-75
2022/01/13 12:57:21;;;;;;;43.13;21.83;;;;;;;;;;5006167;28;20197;-75
2022/01/13 12:59:55;;;;;;;40.60;22.52;;;;;;;;;;5008060;28;20226;-74
2022/01/13 13:02:22;;;;;;;44.83;23.50;;;;;;;;;;5009547;28;20200;-74
2022/01/13 13:04:49;;;;;;;39.60;21.35;;;;;;;;;;5003602;28;20204;-74
2022/01/13 13:07:16;;;;;;;46.65;26.27;;;;;;;;;;5004843;28;20200;-74
2022/01/13 13:09:44;;;;;;;41.03;22.52;;;;;;;;;;5005702;28;20201;-75
2022/01/13 13:12:24;;;;;;;39.58;22.25;;;;;;;;;;5007599;28;20204;-75
2022/01/13 13:17:37;;;;;;;38.88;22.05;;;;;;;;;;4981735;28;20220;-75
2022/01/13 13:20:05;;;;;;;43.38;22.95;;;;;;;;;;5019215;28;20254;-75
2022/01/13 13:22:44;;;;;;;36.38;21.20;;;;;;;;;;5006389;28;20197;-74
2022/01/13 13:25:12;;;;;;;36.50;19.45;;;;;;;;;;5006508;28;20220;-75
2022/01/13 13:27:39;;;;;;;35.70;20.52;;;;;;;;;;5004112;28;20227;-76
2022/01/13 13:30:08;;;;;;;37.72;21.73;;;;;;;;;;5007237;28;20227;-75
2022/01/13 13:32:35;;;;;;;32.58;18.95;;;;;;;;;;5003213;28;20197;-75
2022/01/13 13:35:02;;;;;;;37.40;22.60;;;;;;;;;;5007523;28;20200;-74
2022/01/13 13:37:29;;;;;;;39.08;22.45;;;;;;;;;;5007383;28;20511;-74
2022/01/13 13:39:56;;;;;;;34.42;20.83;;;;;;;;;;5005635;28;20208;-74
2022/01/13 13:42:26;;;;;;;30.35;19.23;;;;;;;;;;5007005;28;20219;-74
2022/01/13 13:44:53;;;;;;;35.63;20.35;;;;;;;;;;5000257;28;20207;-75
2022/01/13 13:47:24;;;;;;;36.08;21.33;;;;;;;;;;5000644;28;20380;-74
2022/01/13 13:49:57;;;;;;;34.10;21.00;;;;;;;;;;5003647;28;20201;-74
2022/01/13 13:52:24;;;;;;;31.38;19.20;;;;;;;;;;5007911;28;20254;-74
2022/01/13 13:54:53;;;;;;;39.20;21.52;;;;;;;;;;4999793;28;20408;-76
2022/01/13 13:57:21;;;;;;;33.40;18.42;;;;;;;;;;5004535;28;20207;-75
2022/01/13 13:59:51;;;;;;;33.53;19.67;;;;;;;;;;5008457;28;20520;-76
2022/01/13 14:02:20;;;;;;;37.38;20.23;;;;;;;;;;5007179;28;20211;-75
2022/01/13 14:04:50;;;;;;;36.17;22.80;;;;;;;;;;5009069;28;20204;-75
2022/01/13 14:07:25;;;;;;;39.63;21.45;;;;;;;;;;5004536;28;20208;-76
2022/01/13 14:10:01;;;;;;;31.88;19.95;;;;;;;;;;5005673;28;20199;-77
2022/01/13 14:12:29;;;;;;;30.05;20.30;;;;;;;;;;5009783;28;20239;-76
2022/01/13 14:14:56;;;;;;;41.92;20.65;;;;;;;;;;5011454;28;20674;-77
2022/01/13 14:17:31;;;;;;;40.10;21.83;;;;;;;;;;5007974;28;20221;-77
2022/01/13 14:20:04;;;;;;;27.38;18.20;;;;;;;;;;5002883;28;20192;-76
2022/01/13 14:22:31;;;;;;;26.55;17.35;;;;;;;;;;5004964;28;20682;-76
2022/01/13 14:24:59;;;;;;;36.00;18.75;;;;;;;;;;5008343;28;20200;-77
2022/01/13 14:27:27;;;;;;;33.38;19.52;;;;;;;;;;5006577;28;20351;-75
2022/01/13 14:29:54;;;;;;;34.72;18.00;;;;;;;;;;5004962;28;20289;-75
2022/01/13 14:32:22;;;;;;;32.70;20.23;;;;;;;;;;5007875;28;20203;-77
2022/01/13 14:34:50;;;;;;;30.98;17.20;;;;;;;;;;5007345;28;20196;-77
2022/01/13 14:37:19;;;;;;;31.02;19.65;;;;;;;;;;5002246;28;20211;-77
2022/01/13 14:40:00;;;;;;;35.92;18.55;;;;;;;;;;4999464;28;20192;-76
2022/01/13 14:42:29;;;;;;;34.60;21.40;;;;;;;;;;5001228;28;20660;-76
2022/01/13 14:45:11;;;;;;;29.77;17.65;;;;;;;;;;5002850;28;20693;-75
2022/01/13 14:47:38;;;;;;;31.67;16.60;;;;;;;;;;4999548;28;20200;-75